Hlavní strana
METAR-TAF:

METAR-TAF

Letiště :

Thomson-McDuffie County Airport

Thomson, Georgie, Spojené státy americké

zeměpisná šířka: 33-31-46N, zeměpisná délka: 082-30-59W, výška: 152 m

Aktuální stav počasí

Zpráva byla vytvořena před 26 minutami, v 02:15 UTC
Severoseverozápadní vítr 3 kt
Teplota 10°C
Vlhkost vzduchu 93%
Tlak 1020 hPa
Viditelnost: 16.1 km
Polojasno ve výšce 3400 ft
Oblačno až skoro zataženo ve výšce 4200 ft
Oblačno až skoro zataženo ve výšce 8000 ft

METAR: KHQU 190215Z AUTO 33003KT 10SM SCT034 BKN042 BKN080 10/09 A3013 RMK AO2 T01020090

Čas: 21:41 (02:41 UTC)


TAF: chybějící

Stav a předpovědi počasí z více než 4 000 letišť (zprávy METAR a TAF).

Červené a žluté tečky na mapě představují dostupné meteorologické stanice.

Když kurzor umístíte na tečku, zobrazí se název stanice.

Pak kliknutím zobrazíte stav a předpověď počasí.

Chcete-li změnit mapu, kliknutím na zelené tlačítko se znaménkem +mapu přiblížíte, kliknutím na zelené tlačítko se znaménkem – mapu oddálíte a kliknutím na zelené šipky přejdete na sousední mapy.


METAR-TAF: